Time;durP1;ratioP1;P1;durP2;ratioP2;P2;SDS_P1;SDS_P2;PMS_P1;PMS_P2;Temp;Humidity;BMP_temperature;BMP_pressure;BME280_temperature;BME280_humidity;BME280_pressure;Samples;Min_cycle;Max_cycle;Signal;HPM_P1;HPM_P2
2022/11/20 00:02:14;;;;;;;7.53;5.37;;;5.90;69.90;;;;;;2373834;56;21135;-52
2022/11/20 00:04:41;;;;;;;9.30;5.22;;;5.90;70.00;;;;;;2373428;56;21090;-57
2022/11/20 00:07:08;;;;;;;9.38;5.32;;;5.90;70.10;;;;;;2374185;56;21062;-58
2022/11/20 00:09:35;;;;;;;8.50;5.45;;;5.80;70.10;;;;;;2374286;56;22287;-57
2022/11/20 00:12:03;;;;;;;8.98;5.05;;;5.80;70.10;;;;;;2374220;56;21062;-57
2022/11/20 00:14:30;;;;;;;7.72;4.70;;;5.80;70.30;;;;;;2373508;56;21731;-55
2022/11/20 00:16:57;;;;;;;9.00;5.57;;;5.90;70.40;;;;;;2373684;56;21059;-56
2022/11/20 00:19:24;;;;;;;7.60;4.65;;;5.80;70.40;;;;;;2373507;56;21110;-57
2022/11/20 00:21:53;;;;;;;7.43;4.75;;;5.80;70.50;;;;;;2373199;56;21055;-55
2022/11/20 00:24:20;;;;;;;10.00;5.28;;;5.80;70.50;;;;;;2374888;56;21031;-53
2022/11/20 00:26:48;;;;;;;7.72;5.12;;;5.90;70.70;;;;;;2392461;52;21665;-54
2022/11/20 00:29:15;;;;;;;8.45;4.53;;;5.80;70.50;;;;;;2373457;56;21519;-57
2022/11/20 00:31:42;;;;;;;7.07;4.90;;;5.80;70.60;;;;;;2373109;56;21055;-55
2022/11/20 00:34:10;;;;;;;7.32;5.03;;;5.80;70.70;;;;;;2372972;56;21626;-58
2022/11/20 00:36:37;;;;;;;7.35;4.47;;;5.80;70.70;;;;;;2373654;56;21511;-56
2022/11/20 00:39:04;;;;;;;11.40;5.32;;;5.80;70.50;;;;;;2373116;56;21129;-55
2022/11/20 00:41:31;;;;;;;6.28;5.10;;;5.80;70.50;;;;;;2424309;52;21099;-55
2022/11/20 00:43:59;;;;;;;9.65;5.47;;;5.80;70.60;;;;;;2373782;56;21055;-56
2022/11/20 00:46:28;;;;;;;7.75;5.32;;;5.80;70.50;;;;;;2373082;56;21123;-56
2022/11/20 00:48:55;;;;;;;7.32;4.80;;;5.80;70.60;;;;;;2373600;56;21542;-54
2022/11/20 00:51:24;;;;;;;12.60;5.47;;;5.80;70.50;;;;;;2373322;56;21102;-56
2022/11/20 00:53:51;;;;;;;8.02;5.20;;;5.80;70.60;;;;;;2373911;56;21653;-54
2022/11/20 00:56:20;;;;;;;6.40;4.72;;;5.80;70.50;;;;;;2374842;56;21031;-56
2022/11/20 00:58:48;;;;;;;8.38;4.65;;;5.80;70.70;;;;;;2374743;56;21088;-57
2022/11/20 01:01:17;;;;;;;13.43;5.62;;;5.80;70.90;;;;;;2373498;56;21063;-55
2022/11/20 01:03:46;;;;;;;7.37;4.68;;;5.80;70.80;;;;;;2373834;56;21680;-57
2022/11/20 01:06:15;;;;;;;7.40;4.45;;;5.80;71.00;;;;;;2373774;56;21539;-54
2022/11/20 01:08:43;;;;;;;9.02;5.68;;;5.80;71.00;;;;;;2373564;56;21038;-56
2022/11/20 01:11:12;;;;;;;9.43;5.55;;;5.80;70.90;;;;;;2372662;56;21027;-56
2022/11/20 01:13:41;;;;;;;7.47;4.97;;;5.70;70.80;;;;;;2373337;56;21662;-54
2022/11/20 01:16:10;;;;;;;9.57;5.95;;;5.80;70.80;;;;;;2372717;56;21118;-56
2022/11/20 01:18:38;;;;;;;8.27;5.65;;;5.80;70.60;;;;;;2374065;56;21585;-55
2022/11/20 01:21:08;;;;;;;7.37;5.30;;;5.70;70.60;;;;;;2373409;56;21646;-57
2022/11/20 01:23:37;;;;;;;7.60;5.30;;;5.70;70.70;;;;;;2372567;56;21539;-58
2022/11/20 01:26:06;;;;;;;9.63;5.60;;;5.70;70.70;;;;;;2433898;52;21583;-54
2022/11/20 01:28:34;;;;;;;7.60;5.03;;;5.60;70.70;;;;;;2374326;56;21031;-57
2022/11/20 01:31:01;;;;;;;8.95;5.45;;;5.60;70.90;;;;;;2374360;56;21026;-57
2022/11/20 01:33:29;;;;;;;8.93;5.60;;;5.70;70.80;;;;;;2374217;56;21098;-58
2022/11/20 01:36:05;;;;;;;8.93;5.28;;;5.60;70.80;;;;;;2373504;56;21047;-56
2022/11/20 01:38:32;;;;;;;10.90;5.40;;;5.60;70.50;;;;;;2373401;56;21634;-56
2022/11/20 01:40:59;;;;;;;8.57;5.23;;;5.60;70.50;;;;;;2373301;56;21094;-58
2022/11/20 01:43:28;;;;;;;8.57;5.65;;;5.60;70.50;;;;;;2373563;56;21035;-51
2022/11/20 01:46:13;;;;;;;10.05;5.20;;;5.60;70.80;;;;;;2371850;56;21190;-55
2022/11/20 01:48:49;;;;;;;7.47;5.18;;;5.60;71.00;;;;;;2373707;56;21047;-55
2022/11/20 01:51:24;;;;;;;9.07;5.30;;;5.60;71.00;;;;;;2373989;56;21539;-56
2022/11/20 01:53:54;;;;;;;7.78;4.68;;;5.60;71.20;;;;;;2373683;56;21098;-57
2022/11/20 01:56:21;;;;;;;12.20;5.70;;;5.60;71.30;;;;;;2373597;56;21074;-54
2022/11/20 01:58:54;;;;;;;10.43;6.53;;;5.60;71.40;;;;;;2373484;56;21619;-53
2022/11/20 02:01:21;;;;;;;8.88;5.53;;;5.60;71.50;;;;;;2377462;52;22186;-53
2022/11/20 02:03:49;;;;;;;5.95;4.80;;;5.50;71.50;;;;;;2372511;56;21135;-54
2022/11/20 02:06:23;;;;;;;8.88;5.03;;;5.60;71.70;;;;;;2374187;56;21086;-57
2022/11/20 02:08:50;;;;;;;8.73;5.60;;;5.60;71.70;;;;;;2374319;56;21023;-55
2022/11/20 02:11:17;;;;;;;7.45;5.32;;;5.60;71.60;;;;;;2374586;56;21082;-55
2022/11/20 02:13:45;;;;;;;7.12;5.28;;;5.60;71.50;;;;;;2373526;56;21047;-54
2022/11/20 02:16:19;;;;;;;8.18;5.75;;;5.60;71.70;;;;;;2373354;56;21189;-54
2022/11/20 02:18:47;;;;;;;8.48;5.70;;;5.50;71.70;;;;;;2372038;56;21047;-56
2022/11/20 02:21:28;;;;;;;9.93;5.12;;;5.60;71.70;;;;;;2373092;56;21118;-56
2022/11/20 02:24:06;;;;;;;7.90;5.22;;;5.50;71.70;;;;;;2373772;56;21526;-60
2022/11/20 02:26:37;;;;;;;9.05;5.75;;;5.50;71.80;;;;;;2374239;56;21586;-58
2022/11/20 02:29:04;;;;;;;8.05;5.30;;;5.50;71.90;;;;;;2374133;56;21606;-60
2022/11/20 02:31:37;;;;;;;8.07;5.50;;;5.60;72.20;;;;;;2373773;56;21079;-58
2022/11/20 02:34:04;;;;;;;8.18;5.80;;;5.50;72.20;;;;;;2372404;56;21503;-57
2022/11/20 02:36:35;;;;;;;8.82;5.28;;;5.60;72.30;;;;;;2372995;56;21066;-56
2022/11/20 02:39:02;;;;;;;8.07;5.75;;;5.60;72.20;;;;;;2372220;56;21642;-55
2022/11/20 02:41:35;;;;;;;6.55;4.87;;;5.60;72.20;;;;;;2373314;56;21055;-56
2022/11/20 02:44:03;;;;;;;12.15;5.43;;;5.60;72.20;;;;;;2374786;56;21579;-53
2022/11/20 02:46:30;;;;;;;9.68;5.80;;;5.60;72.30;;;;;;2373745;56;21161;-56
2022/11/20 02:48:57;;;;;;;10.73;6.28;;;5.60;72.20;;;;;;2374926;56;21487;-53
2022/11/20 02:51:25;;;;;;;9.75;5.95;;;5.60;72.20;;;;;;2374091;56;21636;-57
2022/11/20 02:53:52;;;;;;;8.55;6.00;;;5.60;72.20;;;;;;2372739;56;21035;-58
2022/11/20 02:56:19;;;;;;;9.68;5.78;;;5.50;72.10;;;;;;2380017;52;21111;-58
2022/11/20 02:58:46;;;;;;;9.02;5.82;;;5.50;72.30;;;;;;2410799;52;21031;-56
2022/11/20 03:01:14;;;;;;;9.13;5.87;;;5.60;72.20;;;;;;2373559;56;21047;-57
2022/11/20 03:03:41;;;;;;;11.40;6.18;;;5.60;72.30;;;;;;2374082;56;21086;-55
2022/11/20 03:06:08;;;;;;;8.23;6.28;;;5.50;72.30;;;;;;2374005;56;21052;-54
2022/11/20 03:08:36;;;;;;;9.50;5.72;;;5.50;72.20;;;;;;2372606;56;21047;-55
2022/11/20 03:11:08;;;;;;;8.73;5.28;;;5.50;72.40;;;;;;2372874;56;21117;-57
2022/11/20 03:13:35;;;;;;;7.57;5.17;;;5.50;72.70;;;;;;2373365;56;21543;-55
2022/11/20 03:16:11;;;;;;;7.45;5.30;;;5.50;72.60;;;;;;2373418;56;21102;-52
2022/11/20 03:18:39;;;;;;;9.73;5.22;;;5.50;72.60;;;;;;2380927;52;21153;-54
2022/11/20 03:21:07;;;;;;;9.30;5.55;;;5.50;72.60;;;;;;2391104;52;21606;-57
2022/11/20 03:23:34;;;;;;;7.25;4.95;;;5.50;72.60;;;;;;2374487;56;21552;-56
2022/11/20 03:26:14;;;;;;;7.72;5.53;;;5.40;72.50;;;;;;2374103;56;21023;-56
2022/11/20 03:28:42;;;;;;;10.15;5.82;;;5.40;73.40;;;;;;2373224;56;21123;-55
2022/11/20 03:31:11;;;;;;;8.73;5.22;;;5.40;72.60;;;;;;2372811;56;21095;-57
2022/11/20 03:33:39;;;;;;;8.93;5.50;;;5.40;72.70;;;;;;2373494;56;21429;-52
2022/11/20 03:36:09;;;;;;;6.87;5.40;;;5.40;72.80;;;;;;2373271;56;21539;-54
2022/11/20 03:38:37;;;;;;;8.27;5.20;;;5.50;72.80;;;;;;2373603;56;21559;-57
2022/11/20 03:41:07;;;;;;;6.20;5.35;;;5.50;72.90;;;;;;2372645;56;21622;-57
2022/11/20 03:43:35;;;;;;;14.30;6.85;;;5.50;72.90;;;;;;2373989;56;21547;-57
2022/11/20 03:46:03;;;;;;;8.00;5.55;;;5.50;72.90;;;;;;2372875;56;21535;-55
2022/11/20 03:48:30;;;;;;;7.07;5.25;;;5.40;72.70;;;;;;2394481;52;21547;-55
2022/11/20 03:51:08;;;;;;;10.43;5.68;;;5.40;73.00;;;;;;2373554;56;21534;-53
2022/11/20 03:53:36;;;;;;;9.15;5.50;;;5.40;72.90;;;;;;2373451;56;21545;-57
2022/11/20 03:56:04;;;;;;;12.30;6.53;;;5.40;72.50;;;;;;2386286;52;21055;-57
2022/11/20 03:58:32;;;;;;;9.25;6.00;;;5.40;72.50;;;;;;2374647;56;21022;-57
2022/11/20 04:01:05;;;;;;;8.57;5.22;;;5.40;72.70;;;;;;2374666;56;21512;-58
2022/11/20 04:03:31;;;;;;;;;;;5.30;72.70;;;;;;2376678;56;21661;-53
2022/11/20 04:06:03;;;;;;;11.05;5.35;;;5.40;72.90;;;;;;2373456;56;20129;-52
2022/11/20 04:08:31;;;;;;;10.55;6.28;;;5.30;72.40;;;;;;2373574;56;21110;-54
2022/11/20 04:11:09;;;;;;;9.85;5.97;;;5.30;72.60;;;;;;2373514;56;21051;-60
2022/11/20 04:13:36;;;;;;;7.75;5.32;;;5.30;73.00;;;;;;2373338;56;21055;-56
2022/11/20 04:16:04;;;;;;;11.40;5.72;;;5.30;73.10;;;;;;2425425;52;21039;-52
2022/11/20 04:18:31;;;;;;;7.57;5.62;;;5.30;73.30;;;;;;2374341;56;21595;-53
2022/11/20 04:20:59;;;;;;;7.93;5.65;;;5.30;73.20;;;;;;2373288;56;21534;-58
2022/11/20 04:23:27;;;;;;;11.32;5.97;;;5.30;73.00;;;;;;2373801;56;21111;-55
2022/11/20 04:25:54;;;;;;;9.00;5.93;;;5.30;72.80;;;;;;2373306;56;21571;-53
2022/11/20 04:28:21;;;;;;;6.78;4.87;;;5.30;73.60;;;;;;2372865;56;21051;-54
2022/11/20 04:30:48;;;;;;;8.80;5.93;;;5.20;73.10;;;;;;2416705;52;21055;-54
2022/11/20 04:33:15;;;;;;;8.57;5.45;;;5.20;73.20;;;;;;2373566;56;21605;-58
2022/11/20 04:35:43;;;;;;;10.73;6.15;;;5.30;73.40;;;;;;2373533;56;21043;-56
2022/11/20 04:40:45;;;;;;;9.52;7.22;;;5.20;73.30;;;;;;2355850;56;27949;-53
2022/11/20 04:43:12;;;;;;;7.55;5.97;;;4.90;75.30;;;;;;2391852;52;21632;-52
2022/11/20 04:45:39;;;;;;;8.57;5.45;;;5.10;75.00;;;;;;2374618;56;21134;-51
2022/11/20 04:48:06;;;;;;;7.97;5.62;;;5.20;74.40;;;;;;2374486;56;21039;-55
2022/11/20 04:50:34;;;;;;;9.73;5.87;;;5.30;73.90;;;;;;2374427;56;21578;-55
2022/11/20 04:53:01;;;;;;;11.75;5.37;;;5.30;73.70;;;;;;2374444;56;21086;-56
2022/11/20 04:55:28;;;;;;;7.12;5.53;;;5.30;73.60;;;;;;2373686;56;21126;-56
2022/11/20 04:57:55;;;;;;;9.45;5.03;;;5.30;73.50;;;;;;2375439;56;21091;-59
2022/11/20 05:00:22;;;;;;;7.70;5.68;;;5.30;73.50;;;;;;2375265;56;21038;-54
2022/11/20 05:02:49;;;;;;;12.40;6.18;;;5.30;73.40;;;;;;2374602;56;21131;-56
2022/11/20 05:05:17;;;;;;;7.55;5.60;;;5.30;73.40;;;;;;2374310;56;21035;-53
2022/11/20 05:07:44;;;;;;;7.87;5.35;;;5.30;73.40;;;;;;2374485;56;21674;-55
2022/11/20 05:10:11;;;;;;;6.85;5.43;;;5.30;73.60;;;;;;2373080;56;21031;-54
2022/11/20 05:12:38;;;;;;;7.68;5.18;;;5.30;73.50;;;;;;2374451;56;21131;-58
2022/11/20 05:15:09;;;;;;;8.05;5.87;;;5.30;73.70;;;;;;2374415;56;21590;-58
2022/11/20 05:17:37;;;;;;;9.10;6.40;;;5.30;73.70;;;;;;2376131;56;21073;-55
2022/11/20 05:20:06;;;;;;;9.13;5.57;;;5.30;73.60;;;;;;2374551;56;21059;-58
2022/11/20 05:22:33;;;;;;;10.32;6.07;;;5.30;73.70;;;;;;2374149;56;21067;-54
2022/11/20 05:25:00;;;;;;;7.78;5.28;;;5.30;73.70;;;;;;2374454;56;21117;-56
2022/11/20 05:27:27;;;;;;;11.70;6.53;;;5.30;73.70;;;;;;2388326;52;21637;-53
2022/11/20 05:29:54;;;;;;;10.07;6.47;;;5.20;73.70;;;;;;2374906;56;21034;-52
2022/11/20 05:32:25;;;;;;;7.97;5.80;;;5.30;73.90;;;;;;2375433;56;21030;-57
2022/11/20 05:34:52;;;;;;;12.65;5.93;;;5.30;73.90;;;;;;2374328;56;21046;-58
2022/11/20 05:37:19;;;;;;;6.73;5.17;;;5.20;73.80;;;;;;2374663;56;21098;-53
2022/11/20 05:39:46;;;;;;;7.37;5.23;;;5.30;73.90;;;;;;2374322;56;21070;-55
2022/11/20 05:42:32;;;;;;;8.18;5.87;;;5.30;74.00;;;;;;2412300;52;21373;-57
2022/11/20 05:44:59;;;;;;;8.88;6.05;;;5.30;73.90;;;;;;2374594;56;21054;-53
2022/11/20 05:47:27;;;;;;;9.00;5.82;;;5.30;73.90;;;;;;2374276;56;21589;-53
2022/11/20 05:49:54;;;;;;;9.13;5.40;;;5.30;74.80;;;;;;2374116;56;21094;-57
2022/11/20 05:52:21;;;;;;;7.28;5.28;;;5.30;73.80;;;;;;2373931;56;21043;-58
2022/11/20 05:54:49;;;;;;;10.07;5.72;;;5.30;73.70;;;;;;2372571;56;21145;-55
2022/11/20 05:57:16;;;;;;;8.63;6.18;;;5.30;73.70;;;;;;2372967;56;21035;-56
2022/11/20 05:59:43;;;;;;;9.43;6.00;;;5.30;73.80;;;;;;2373455;56;21090;-51
2022/11/20 06:02:10;;;;;;;8.02;5.50;;;5.30;73.70;;;;;;2373104;56;21121;-58
2022/11/20 06:04:37;;;;;;;10.35;6.10;;;5.30;73.90;;;;;;2372928;56;21575;-55
2022/11/20 06:07:06;;;;;;;9.95;5.87;;;5.30;74.40;;;;;;2374064;56;21114;-57
2022/11/20 06:09:34;;;;;;;8.38;5.82;;;5.40;73.90;;;;;;2374449;56;21043;-52
2022/11/20 06:12:01;;;;;;;8.75;5.87;;;5.30;73.80;;;;;;2374127;56;21126;-56
2022/11/20 06:14:28;;;;;;;8.82;5.65;;;5.40;73.80;;;;;;2373222;56;21043;-55
2022/11/20 06:16:55;;;;;;;8.45;5.72;;;5.40;73.60;;;;;;2373198;56;21055;-58
2022/11/20 06:19:23;;;;;;;7.25;5.47;;;5.40;73.60;;;;;;2372663;56;21110;-58
2022/11/20 06:21:50;;;;;;;10.17;5.60;;;5.40;73.30;;;;;;2373431;56;21153;-54
2022/11/20 06:24:17;;;;;;;10.23;5.97;;;5.40;73.30;;;;;;2382980;52;21060;-53
2022/11/20 06:26:45;;;;;;;8.68;5.60;;;5.40;73.40;;;;;;2373351;56;21633;-56
2022/11/20 06:29:12;;;;;;;10.65;5.55;;;5.40;73.50;;;;;;2372981;56;21122;-57
2022/11/20 06:31:39;;;;;;;6.87;5.03;;;5.40;73.50;;;;;;2386418;52;21059;-53
2022/11/20 06:34:07;;;;;;;6.57;5.28;;;5.40;73.40;;;;;;2372406;56;21103;-54
2022/11/20 06:36:34;;;;;;;8.77;6.22;;;5.40;73.40;;;;;;2373210;56;21046;-57
2022/11/20 06:39:03;;;;;;;9.32;5.62;;;5.40;73.40;;;;;;2373532;56;21625;-57
2022/11/20 06:41:30;;;;;;;9.13;6.03;;;5.40;73.40;;;;;;2373454;56;21149;-55
2022/11/20 06:43:58;;;;;;;8.20;4.70;;;5.40;73.40;;;;;;2373754;56;21038;-56
2022/11/20 06:46:25;;;;;;;10.93;6.37;;;5.30;73.60;;;;;;2374064;56;21054;-58
2022/11/20 06:48:52;;;;;;;7.72;5.72;;;5.30;73.70;;;;;;2374062;56;21537;-54
2022/11/20 06:51:21;;;;;;;8.73;5.97;;;5.30;73.70;;;;;;2373339;56;21491;-55
2022/11/20 06:53:48;;;;;;;7.15;5.32;;;5.30;73.60;;;;;;2373096;56;21118;-55
2022/11/20 06:56:15;;;;;;;10.88;6.05;;;5.30;73.30;;;;;;2374064;56;21062;-57
2022/11/20 06:58:42;;;;;;;8.23;6.70;;;5.30;73.20;;;;;;2373870;56;21535;-50
2022/11/20 07:01:12;;;;;;;13.95;7.50;;;5.20;72.80;;;;;;2372935;56;21106;-57
2022/11/20 07:03:40;;;;;;;10.68;6.82;;;5.10;72.80;;;;;;2372981;56;21045;-56
2022/11/20 07:06:08;;;;;;;9.45;6.30;;;5.10;72.70;;;;;;2374995;56;21511;-60
2022/11/20 07:08:36;;;;;;;8.73;6.32;;;5.10;73.20;;;;;;2374683;56;21109;-59
2022/11/20 07:11:06;;;;;;;11.30;7.37;;;5.10;73.40;;;;;;2374145;56;21038;-58
2022/11/20 07:13:34;;;;;;;10.07;5.82;;;5.00;73.30;;;;;;2373280;56;21542;-58
2022/11/20 07:16:02;;;;;;;10.07;6.10;;;5.00;73.40;;;;;;2373273;56;21546;-59
2022/11/20 07:18:29;;;;;;;9.98;6.53;;;5.00;73.60;;;;;;2373160;56;21601;-54
2022/11/20 07:20:59;;;;;;;9.60;7.12;;;5.00;73.50;;;;;;2373510;56;21051;-56
2022/11/20 07:23:26;;;;;;;9.95;7.15;;;5.00;73.50;;;;;;2373859;56;21511;-53
2022/11/20 07:25:53;;;;;;;7.82;6.50;;;5.00;73.50;;;;;;2373761;56;21122;-59
2022/11/20 07:28:21;;;;;;;8.57;6.95;;;5.10;73.70;;;;;;2373610;56;21543;-52
2022/11/20 07:30:51;;;;;;;9.40;7.40;;;5.10;73.80;;;;;;2390352;52;21590;-57
2022/11/20 07:33:18;;;;;;;15.20;8.57;;;5.00;73.70;;;;;;2373454;56;21641;-53
2022/11/20 07:35:46;;;;;;;10.55;7.93;;;5.10;73.80;;;;;;2373037;56;21122;-58
2022/11/20 07:38:13;;;;;;;10.73;8.32;;;5.10;73.90;;;;;;2373371;56;21051;-51
2022/11/20 07:40:40;;;;;;;11.02;7.85;;;5.10;74.00;;;;;;2373135;56;21609;-57
2022/11/20 07:43:07;;;;;;;10.15;7.80;;;5.10;74.10;;;;;;2372317;56;21063;-55
2022/11/20 07:45:34;;;;;;;11.80;7.60;;;5.10;74.20;;;;;;2372205;56;21058;-56
2022/11/20 07:48:02;;;;;;;12.37;7.82;;;5.20;74.20;;;;;;2371977;56;21067;-55
2022/11/20 07:50:29;;;;;;;12.18;7.45;;;5.20;74.20;;;;;;2374208;56;21495;-58
2022/11/20 07:53:02;;;;;;;9.60;6.80;;;5.20;74.20;;;;;;2373017;56;21056;-57
2022/11/20 07:55:30;;;;;;;8.95;6.53;;;5.20;74.00;;;;;;2373394;56;21126;-54
2022/11/20 07:57:58;;;;;;;9.85;6.75;;;5.30;74.00;;;;;;2374271;52;21134;-58
2022/11/20 08:00:26;;;;;;;11.43;7.22;;;5.30;74.00;;;;;;2370840;56;21051;-56
2022/11/20 08:02:53;;;;;;;10.27;7.87;;;5.30;73.80;;;;;;2371877;56;22247;-55
2022/11/20 08:05:20;;;;;;;10.38;6.70;;;5.30;73.70;;;;;;2371076;56;21554;-52
2022/11/20 08:07:47;;;;;;;11.60;7.75;;;5.30;73.60;;;;;;2372254;56;21066;-51
2022/11/20 08:10:16;;;;;;;12.05;7.72;;;5.40;73.40;;;;;;2372456;56;21454;-56
2022/11/20 08:15:33;;;;;;;15.23;8.50;;;5.40;73.30;;;;;;2373477;52;20983;-56
2022/11/20 08:18:04;;;;;;;12.40;7.50;;;5.40;73.20;;;;;;2372092;56;21110;-56
2022/11/20 08:20:32;;;;;;;13.13;8.00;;;5.30;73.40;;;;;;2374316;56;21063;-58
2022/11/20 08:23:00;;;;;;;10.25;7.28;;;5.40;73.70;;;;;;2374103;56;21026;-59
2022/11/20 08:25:28;;;;;;;9.88;7.10;;;5.40;73.50;;;;;;2374034;56;21039;-53
2022/11/20 08:27:58;;;;;;;14.05;8.30;;;5.40;73.70;;;;;;2371763;56;21113;-57
2022/11/20 08:30:26;;;;;;;12.23;7.18;;;5.40;73.90;;;;;;2372665;56;21961;-55
2022/11/20 08:32:54;;;;;;;12.50;7.95;;;5.40;73.90;;;;;;2372340;56;21515;-57
2022/11/20 08:35:22;;;;;;;10.55;6.75;;;5.50;73.80;;;;;;2371554;56;21587;-56
2022/11/20 08:37:49;;;;;;;10.75;6.87;;;5.50;73.80;;;;;;2372827;56;21531;-57
2022/11/20 08:40:17;;;;;;;11.23;6.55;;;5.40;73.70;;;;;;2372817;56;21106;-58
2022/11/20 08:42:48;;;;;;;12.40;6.97;;;5.40;73.90;;;;;;2372176;56;21043;-54
2022/11/20 08:45:17;;;;;;;9.77;7.25;;;5.40;74.10;;;;;;2371326;56;21043;-55
2022/11/20 08:47:44;;;;;;;16.42;9.98;;;5.50;74.10;;;;;;2372497;56;21098;-56
2022/11/20 08:50:13;;;;;;;10.38;7.85;;;5.50;74.10;;;;;;2372992;56;21063;-58
2022/11/20 08:52:40;;;;;;;9.88;7.28;;;5.50;74.00;;;;;;2372508;56;21613;-56
2022/11/20 08:55:11;;;;;;;11.07;7.43;;;5.50;74.10;;;;;;2372404;56;21538;-59
2022/11/20 08:57:39;;;;;;;9.82;6.50;;;5.50;73.80;;;;;;2372300;56;21058;-59
2022/11/20 09:00:10;;;;;;;11.40;6.68;;;5.60;74.00;;;;;;2374046;56;21046;-56
2022/11/20 09:02:37;;;;;;;11.05;7.40;;;5.60;74.00;;;;;;2373355;56;21078;-58
2022/11/20 09:05:06;;;;;;;9.15;6.90;;;5.60;73.80;;;;;;2372949;56;21110;-54
2022/11/20 09:07:33;;;;;;;9.68;6.60;;;5.60;73.50;;;;;;2372995;56;21586;-56
2022/11/20 09:10:00;;;;;;;12.52;7.85;;;5.60;73.60;;;;;;2385346;52;21114;-53
2022/11/20 09:12:27;;;;;;;9.98;7.18;;;5.60;73.40;;;;;;2386633;52;21083;-53
2022/11/20 09:14:54;;;;;;;7.97;6.50;;;5.60;73.10;;;;;;2372769;56;21378;-55
2022/11/20 09:17:21;;;;;;;9.95;6.35;;;5.60;73.00;;;;;;2400301;52;21047;-58
2022/11/20 09:19:49;;;;;;;10.00;6.35;;;5.60;72.90;;;;;;2372895;56;21502;-55
2022/11/20 09:22:16;;;;;;;8.45;6.82;;;5.60;73.20;;;;;;2372057;56;21079;-52
2022/11/20 09:24:43;;;;;;;8.32;6.07;;;5.50;73.50;;;;;;2371799;56;21062;-54
2022/11/20 09:27:10;;;;;;;10.27;6.43;;;5.60;73.80;;;;;;2372926;56;22089;-57
2022/11/20 09:29:37;;;;;;;7.68;5.07;;;5.60;73.60;;;;;;2372505;56;21050;-54
2022/11/20 09:32:05;;;;;;;8.05;6.03;;;5.60;73.50;;;;;;2372787;56;21554;-54
2022/11/20 09:34:33;;;;;;;8.20;5.53;;;5.60;73.50;;;;;;2373825;56;21035;-55
2022/11/20 09:37:00;;;;;;;11.88;6.75;;;5.60;73.60;;;;;;2374415;56;21089;-51
2022/11/20 09:39:27;;;;;;;8.98;6.15;;;5.60;73.70;;;;;;2374031;56;21042;-52
2022/11/20 09:42:27;;;;;;;9.13;5.93;;;5.60;74.00;;;;;;2372463;56;21605;-56
2022/11/20 09:45:12;;;;;;;7.28;5.47;;;5.50;74.20;;;;;;2372223;56;21082;-54
2022/11/20 09:47:54;;;;;;;14.18;6.32;;;5.60;74.30;;;;;;2372627;56;21510;-54
2022/11/20 09:50:30;;;;;;;9.30;5.00;;;5.60;74.20;;;;;;2372432;56;21055;-53
2022/11/20 09:55:48;;;;;;;9.80;5.62;;;5.60;74.10;;;;;;2328414;57;22104;-55
2022/11/20 09:58:25;;;;;;;6.95;5.32;;;5.70;74.20;;;;;;2346559;57;21077;-55
2022/11/20 10:00:56;;;;;;;9.13;5.90;;;5.70;74.00;;;;;;2345661;57;22108;-54
2022/11/20 10:03:41;;;;;;;7.87;5.70;;;5.70;74.00;;;;;;2345559;57;21065;-61
2022/11/20 10:08:55;;;;;;;6.72;5.40;;;5.70;74.50;;;;;;2354961;57;22074;-60
2022/11/20 10:14:16;;;;;;;6.00;4.97;;;5.70;74.00;;;;;;2353943;57;22082;-58
2022/11/20 10:16:53;;;;;;;6.03;4.82;;;5.70;73.60;;;;;;2347881;57;21120;-55
2022/11/20 10:19:38;;;;;;;5.65;4.60;;;5.70;73.90;;;;;;2351072;56;21539;-54
2022/11/20 10:22:15;;;;;;;7.68;5.90;;;5.70;74.00;;;;;;2373829;56;21575;-53
2022/11/20 10:24:54;;;;;;;6.75;5.28;;;5.70;73.80;;;;;;2373386;56;22145;-53
2022/11/20 10:27:51;;;;;;;8.20;5.55;;;5.80;73.90;;;;;;2373526;56;21550;-55
2022/11/20 10:30:24;;;;;;;7.93;5.10;;;5.80;73.50;;;;;;2373170;56;21394;-54
2022/11/20 10:32:54;;;;;;;6.97;4.57;;;5.70;73.60;;;;;;2374187;56;22148;-55
2022/11/20 10:35:25;;;;;;;7.07;5.35;;;5.70;73.30;;;;;;2373575;56;21622;-55
2022/11/20 10:37:58;;;;;;;6.50;4.95;;;5.70;73.30;;;;;;2373414;56;22131;-54
2022/11/20 10:40:28;;;;;;;;;;;5.60;73.40;;;;;;2376235;56;22159;-56
2022/11/20 10:42:59;;;;;;;8.43;5.25;;;5.70;73.50;;;;;;2372961;56;20715;-58
2022/11/20 10:45:41;;;;;;;6.47;4.95;;;5.70;73.00;;;;;;2376743;52;21562;-57
2022/11/20 10:48:16;;;;;;;6.60;5.07;;;5.70;73.50;;;;;;2372842;56;21035;-55
2022/11/20 10:50:55;;;;;;;7.80;5.10;;;5.70;73.70;;;;;;2373945;56;21887;-55
2022/11/20 10:53:40;;;;;;;7.35;5.47;;;5.70;73.70;;;;;;2374223;56;21109;-57
2022/11/20 10:56:16;;;;;;;6.90;5.20;;;5.70;74.00;;;;;;2375558;56;21102;-56
2022/11/20 10:58:50;;;;;;;7.00;4.87;;;5.70;73.70;;;;;;2374095;56;21054;-54
2022/11/20 11:01:21;;;;;;;8.57;5.43;;;5.70;73.70;;;;;;2372014;56;21059;-57
2022/11/20 11:03:51;;;;;;;6.37;5.07;;;5.70;73.70;;;;;;2374129;56;21035;-57
2022/11/20 11:06:28;;;;;;;5.68;4.90;;;5.70;73.70;;;;;;2371562;56;21023;-58
2022/11/20 11:09:00;;;;;;;6.87;5.18;;;5.70;73.80;;;;;;2392969;52;21581;-52
2022/11/20 11:11:30;;;;;;;6.90;4.53;;;5.80;73.90;;;;;;2373564;56;21673;-49
2022/11/20 11:16:50;;;;;;;5.00;4.50;;;5.80;74.00;;;;;;2354982;57;22149;-53
2022/11/20 11:19:18;;;;;;;7.03;4.43;;;5.90;73.20;;;;;;2347421;56;21141;-57
2022/11/20 11:21:49;;;;;;;6.85;4.37;;;5.90;73.30;;;;;;2371843;56;21620;-57
2022/11/20 11:24:23;;;;;;;8.43;5.12;;;5.90;73.10;;;;;;2372670;56;21051;-55
2022/11/20 11:26:57;;;;;;;6.10;4.60;;;6.00;72.20;;;;;;2373335;56;21113;-54
2022/11/20 11:29:26;;;;;;;6.47;4.65;;;5.90;72.40;;;;;;2369708;56;21538;-56
2022/11/20 11:32:06;;;;;;;6.20;4.78;;;5.90;72.80;;;;;;2371011;56;21042;-55
2022/11/20 11:34:33;;;;;;;6.93;4.22;;;5.90;73.10;;;;;;2370522;56;22156;-54
2022/11/20 11:37:03;;;;;;;5.95;4.62;;;6.00;73.00;;;;;;2371381;56;21641;-57
2022/11/20 11:39:33;;;;;;;6.85;5.10;;;6.00;72.90;;;;;;2388155;52;21153;-58
2022/11/20 11:42:01;;;;;;;5.03;3.85;;;6.00;72.80;;;;;;2370609;56;21532;-58
2022/11/20 11:47:24;;;;;;;6.00;4.12;;;6.00;72.30;;;;;;2373530;52;21075;-54
2022/11/20 11:50:13;;;;;;;4.22;3.80;;;6.00;71.80;;;;;;2374080;56;21039;-57
2022/11/20 11:52:46;;;;;;;5.28;3.92;;;6.00;71.70;;;;;;2373461;56;21138;-53
2022/11/20 11:55:17;;;;;;;5.00;3.80;;;6.10;71.50;;;;;;2438512;52;21971;-53
2022/11/20 11:57:51;;;;;;;7.12;6.43;;;6.00;71.30;;;;;;2384563;52;21594;-51
2022/11/20 12:00:22;;;;;;;8.85;6.60;;;6.00;71.80;;;;;;2374425;56;21130;-53
2022/11/20 12:02:59;;;;;;;6.90;4.85;;;6.00;71.80;;;;;;2373813;56;21121;-57
2022/11/20 12:05:29;;;;;;;8.60;6.30;;;6.10;71.70;;;;;;2373949;56;21726;-52
2022/11/20 12:08:02;;;;;;;8.15;5.20;;;6.10;71.90;;;;;;2374645;56;21507;-50
2022/11/20 12:10:41;;;;;;;7.40;4.55;;;6.10;71.80;;;;;;2374994;56;21031;-54
2022/11/20 12:13:21;;;;;;;6.55;4.40;;;6.10;71.90;;;;;;2375268;56;21559;-58
2022/11/20 12:15:49;;;;;;;6.30;4.95;;;6.20;71.50;;;;;;2375105;56;21027;-52
2022/11/20 12:18:20;;;;;;;5.20;4.70;;;6.10;71.20;;;;;;2374511;56;21542;-53
2022/11/20 12:21:02;;;;;;;5.72;4.45;;;6.10;71.20;;;;;;2373188;56;21591;-54
2022/11/20 12:23:39;;;;;;;5.12;3.95;;;6.10;71.10;;;;;;2373561;56;21736;-55
2022/11/20 12:28:59;;;;;;;5.05;4.00;;;6.20;71.20;;;;;;2326322;57;22079;-57
2022/11/20 12:31:48;;;;;;;5.82;4.20;;;6.20;71.10;;;;;;2314263;54;22475;-52
2022/11/20 12:37:33;;;;;;;5.90;4.18;;;6.30;71.00;;;;;;2353551;57;22597;-51
2022/11/20 12:40:15;;;;;;;4.30;3.47;;;6.30;71.00;;;;;;2345225;57;21683;-55
2022/11/20 12:46:03;;;;;;;3.85;3.37;;;6.30;71.20;;;;;;2371387;56;20998;-50
2022/11/20 12:49:07;;;;;;;5.55;3.72;;;6.20;70.80;;;;;;2369750;56;21680;-51
2022/11/20 12:51:57;;;;;;;6.32;4.68;;;6.20;70.60;;;;;;2304446;56;21011;-52
2022/11/20 12:55:03;;;;;;;8.75;5.62;;;6.20;70.60;;;;;;2373699;56;21093;-49
2022/11/20 12:57:36;;;;;;;5.97;4.45;;;6.20;70.60;;;;;;2371701;56;21150;-51
2022/11/20 13:00:14;;;;;;;5.22;4.28;;;6.20;70.40;;;;;;2371900;56;21282;-51
2022/11/20 13:03:01;;;;;;;4.22;3.83;;;6.20;70.40;;;;;;2370994;56;21613;-50
2022/11/20 13:05:37;;;;;;;8.38;5.53;;;6.20;70.50;;;;;;2370625;56;21530;-50
2022/11/20 13:08:09;;;;;;;10.73;6.32;;;6.20;70.90;;;;;;2371866;56;21150;-49
2022/11/20 13:10:43;;;;;;;12.75;7.57;;;6.20;71.00;;;;;;2370938;56;22082;-50
2022/11/20 13:13:18;;;;;;;10.82;6.55;;;6.30;71.10;;;;;;2371849;56;21589;-51
2022/11/20 13:15:52;;;;;;;10.30;5.28;;;6.40;70.90;;;;;;2372122;56;22122;-49
2022/11/20 13:18:20;;;;;;;7.95;5.35;;;6.40;70.80;;;;;;2371649;56;21546;-51
2022/11/20 13:20:50;;;;;;;8.35;5.43;;;6.40;70.80;;;;;;2370753;56;21066;-50
2022/11/20 13:23:28;;;;;;;6.10;4.82;;;6.40;71.00;;;;;;2365782;56;21043;-52
2022/11/20 13:26:13;;;;;;;10.95;5.82;;;6.30;70.70;;;;;;2369956;56;21118;-50
2022/11/20 13:28:41;;;;;;;11.85;4.30;;;6.30;70.70;;;;;;2371330;56;21038;-53
2022/11/20 13:31:30;;;;;;;8.23;4.35;;;6.40;70.70;;;;;;2372060;56;21039;-53
2022/11/20 13:33:58;;;;;;;6.00;4.55;;;6.30;70.70;;;;;;2370551;56;21149;-53
2022/11/20 13:36:28;;;;;;;4.60;4.05;;;6.30;70.50;;;;;;2373215;56;21618;-50
2022/11/20 13:38:56;;;;;;;5.57;3.80;;;6.20;70.20;;;;;;2372123;56;21133;-53
2022/11/20 13:44:14;;;;;;;5.10;3.47;;;6.20;70.30;;;;;;2296000;58;22191;-50